createdAt,value
2022-11-14T00:00:11.892Z,7.49
2022-11-14T00:05:32.613Z,7.47
2022-11-14T00:10:53.260Z,7.49
2022-11-14T00:16:16.974Z,7.50
2022-11-14T00:21:37.004Z,7.47
2022-11-14T00:26:58.145Z,7.50
2022-11-14T00:32:18.559Z,7.51
2022-11-14T00:37:38.779Z,7.52
2022-11-14T00:42:59.313Z,7.56
2022-11-14T00:48:19.406Z,7.56
2022-11-14T00:53:39.833Z,7.55
2022-11-14T00:59:00.419Z,7.55
2022-11-14T01:04:20.750Z,7.54
2022-11-14T01:09:41.129Z,7.53
2022-11-14T01:15:01.458Z,7.51
2022-11-14T01:20:21.842Z,7.48
2022-11-14T01:25:43.301Z,7.47
2022-11-14T01:31:14.205Z,7.47
2022-11-14T01:36:34.423Z,7.47
2022-11-14T01:41:55.991Z,7.47
2022-11-14T01:47:30.888Z,7.48
2022-11-14T01:52:51.189Z,7.51
2022-11-14T01:58:13.133Z,7.53
2022-11-14T02:03:37.967Z,7.55
2022-11-14T02:09:01.368Z,7.55
2022-11-14T02:14:21.846Z,7.55
2022-11-14T02:20:02.254Z,7.55
2022-11-14T02:25:26.318Z,7.56
2022-11-14T02:30:46.626Z,7.59
2022-11-14T02:36:07.505Z,7.61
2022-11-14T02:41:27.760Z,7.62
2022-11-14T02:46:48.142Z,7.62
2022-11-14T02:52:08.549Z,7.66
2022-11-14T02:57:28.619Z,7.70
2022-11-14T03:02:49.100Z,7.71
2022-11-14T03:08:09.195Z,7.74
2022-11-14T03:13:32.742Z,7.78
2022-11-14T03:18:53.453Z,7.81
2022-11-14T03:24:13.715Z,7.81
2022-11-14T03:29:34.336Z,7.83
2022-11-14T03:34:54.637Z,7.83
2022-11-14T03:40:14.717Z,7.83
2022-11-14T03:45:37.543Z,7.84
2022-11-14T03:50:58.525Z,7.86
2022-11-14T03:56:18.945Z,7.88
2022-11-14T04:01:39.503Z,7.91
2022-11-14T04:06:59.969Z,7.93
2022-11-14T04:12:20.220Z,7.96
2022-11-14T04:17:40.914Z,7.98
2022-11-14T04:23:01.076Z,7.98
2022-11-14T04:28:21.390Z,7.98
2022-11-14T04:33:41.714Z,7.96
2022-11-14T04:39:02.242Z,7.95
2022-11-14T04:44:22.653Z,7.92
2022-11-14T04:49:42.958Z,7.90
2022-11-14T04:55:03.514Z,7.85
2022-11-14T05:00:25.022Z,7.81
2022-11-14T05:05:45.691Z,7.82
2022-11-14T05:11:06.652Z,7.83
2022-11-14T05:16:26.981Z,7.85
2022-11-14T05:21:47.380Z,7.86
2022-11-14T05:27:07.673Z,7.85
2022-11-14T05:32:28.161Z,7.84
2022-11-14T05:37:48.491Z,7.82
2022-11-14T05:43:09.286Z,7.83
2022-11-14T05:48:31.024Z,7.81
2022-11-14T05:53:52.507Z,7.79
2022-11-14T05:59:13.184Z,7.73
2022-11-14T06:04:33.840Z,7.70
2022-11-14T06:09:54.338Z,7.70
2022-11-14T06:15:15.396Z,7.72
2022-11-14T06:20:37.165Z,7.70
2022-11-14T06:26:02.405Z,7.69
2022-11-14T06:31:24.442Z,7.69
2022-11-14T06:36:44.702Z,7.71
2022-11-14T06:42:05.245Z,7.72
2022-11-14T06:47:25.685Z,7.76
2022-11-14T06:52:45.858Z,7.80
2022-11-14T06:58:06.138Z,7.85
2022-11-14T07:03:26.654Z,7.88
2022-11-14T07:08:47.680Z,7.92
2022-11-14T07:14:09.784Z,7.95
2022-11-14T07:19:30.431Z,7.96
2022-11-14T07:24:50.916Z,7.99
2022-11-14T07:30:12.264Z,8.02
2022-11-14T07:35:32.299Z,8.09
2022-11-14T07:40:59.967Z,8.19
2022-11-14T07:46:20.949Z,8.26
2022-11-14T07:51:41.427Z,8.34
2022-11-14T07:57:01.781Z,8.43
2022-11-14T08:02:21.958Z,8.51
2022-11-14T08:07:42.990Z,8.61
2022-11-14T08:18:46.291Z,8.79
2022-11-14T08:24:06.885Z,8.83
2022-11-14T08:29:27.220Z,8.85
2022-11-14T08:34:48.196Z,8.80
2022-11-14T08:40:11.129Z,8.80
2022-11-14T08:45:31.535Z,8.90
2022-11-14T08:50:52.086Z,9.01
2022-11-14T08:56:12.437Z,9.15
2022-11-14T09:01:33.175Z,9.20
2022-11-14T09:06:53.718Z,9.26
2022-11-14T09:12:14.292Z,9.31
2022-11-14T09:17:35.410Z,9.57
2022-11-14T09:22:58.948Z,9.87
2022-11-14T09:28:19.447Z,9.83
2022-11-14T09:33:40.529Z,9.80
2022-11-14T09:39:01.140Z,9.76
2022-11-14T09:44:21.689Z,9.74
2022-11-14T09:49:45.637Z,9.77
2022-11-14T09:55:17.644Z,9.80
2022-11-14T10:01:07.895Z,9.84
2022-11-14T10:06:35.305Z,9.85
2022-11-14T10:12:41.106Z,9.88
2022-11-14T10:18:23.760Z,9.89
2022-11-14T10:24:18.456Z,9.91
2022-11-14T10:29:44.974Z,9.93
2022-11-14T10:35:24.590Z,9.95
2022-11-14T10:40:48.460Z,9.97
2022-11-14T10:46:19.855Z,10.02
2022-11-14T10:51:47.052Z,10.05
2022-11-14T10:57:22.493Z,10.07
2022-11-14T11:02:54.862Z,10.06
2022-11-14T11:08:43.801Z,10.05
2022-11-14T11:14:05.189Z,10.07
2022-11-14T11:19:27.709Z,10.06
2022-11-14T11:24:48.198Z,10.10
2022-11-14T11:30:26.484Z,10.13
2022-11-14T11:35:50.529Z,10.15
2022-11-14T11:41:42.413Z,10.15
2022-11-14T11:47:05.027Z,10.15
2022-11-14T11:52:44.467Z,10.15
2022-11-14T11:58:12.105Z,10.16
2022-11-14T12:03:32.508Z,10.17
2022-11-14T12:09:06.824Z,10.19
2022-11-14T12:14:29.879Z,10.19
2022-11-14T12:20:02.334Z,10.18
2022-11-14T12:25:35.289Z,10.18
2022-11-14T12:31:03.725Z,10.17
2022-11-14T12:36:30.482Z,10.18
2022-11-14T12:41:50.851Z,10.17
2022-11-14T12:47:20.331Z,10.17
2022-11-14T12:52:40.768Z,10.17
2022-11-14T12:58:32.861Z,10.17
2022-11-14T13:04:16.088Z,10.16
2022-11-14T13:10:14.076Z,10.18
2022-11-14T13:16:06.041Z,10.16
2022-11-14T13:21:46.246Z,10.19
2022-11-14T13:28:06.015Z,10.19
2022-11-14T13:33:43.056Z,10.17
2022-11-14T13:39:07.057Z,10.14
2022-11-14T13:44:33.400Z,10.12
2022-11-14T13:50:14.450Z,10.09
2022-11-14T13:55:55.103Z,10.03
2022-11-14T14:01:28.317Z,10.01
2022-11-14T14:06:54.712Z,9.98
2022-11-14T14:12:24.159Z,9.92
2022-11-14T14:17:56.785Z,9.88
2022-11-14T14:23:29.381Z,9.87
2022-11-14T14:29:06.313Z,9.88
2022-11-14T14:34:32.122Z,9.87
2022-11-14T14:40:35.721Z,9.83
2022-11-14T14:45:56.462Z,9.76
2022-11-14T14:51:30.610Z,9.71
2022-11-14T14:57:03.585Z,9.62
2022-11-14T15:02:26.064Z,9.59
2022-11-14T15:07:49.584Z,9.52
2022-11-14T15:13:15.928Z,9.47
2022-11-14T15:18:37.780Z,9.40
2022-11-14T15:24:19.898Z,9.38
2022-11-14T15:29:53.390Z,9.36
2022-11-14T15:35:24.940Z,9.31
2022-11-14T15:41:10.747Z,9.27
2022-11-14T15:46:40.822Z,9.22
2022-11-14T15:52:03.817Z,9.19
2022-11-14T15:57:24.656Z,9.17
2022-11-14T16:02:49.635Z,9.17
2022-11-14T16:08:14.152Z,9.16
2022-11-14T16:13:34.897Z,9.13
2022-11-14T16:18:55.455Z,9.13
2022-11-14T16:24:22.509Z,9.11
2022-11-14T16:29:42.876Z,9.11
2022-11-14T16:35:03.566Z,9.09
2022-11-14T16:40:27.873Z,9.06
2022-11-14T16:45:48.524Z,9.05
2022-11-14T16:51:33.007Z,9.08
2022-11-14T16:56:50.146Z,9.07
2022-11-14T17:02:21.073Z,9.05
2022-11-14T17:07:41.430Z,9.01
2022-11-14T17:13:01.745Z,8.95
2022-11-14T17:18:22.126Z,8.91
2022-11-14T17:23:42.329Z,8.87
2022-11-14T17:29:04.121Z,8.86
2022-11-14T17:34:24.699Z,8.85
2022-11-14T17:39:45.168Z,8.84
2022-11-14T17:45:05.983Z,8.83
2022-11-14T17:50:26.504Z,8.83
2022-11-14T17:55:47.143Z,8.80
2022-11-14T18:01:16.895Z,8.75
2022-11-14T18:06:37.206Z,8.72
2022-11-14T18:11:57.801Z,8.73
2022-11-14T18:17:18.679Z,8.71
2022-11-14T18:22:38.984Z,8.68
2022-11-14T18:27:59.240Z,8.61
2022-11-14T18:33:19.579Z,8.56
2022-11-14T18:38:41.264Z,8.55
2022-11-14T18:44:03.775Z,8.55
2022-11-14T18:49:24.307Z,8.53
2022-11-14T18:54:44.923Z,8.52
2022-11-14T19:00:05.981Z,8.47
2022-11-14T19:05:25.958Z,8.41
2022-11-14T19:10:46.784Z,8.35
2022-11-14T19:16:07.718Z,8.32
2022-11-14T19:21:28.912Z,8.31
2022-11-14T19:26:50.201Z,8.30
2022-11-14T19:32:10.223Z,8.29
2022-11-14T19:37:30.649Z,8.27
2022-11-14T19:42:53.824Z,8.26
2022-11-14T19:48:14.569Z,8.26
2022-11-14T19:53:36.915Z,8.25
2022-11-14T19:58:57.329Z,8.24
2022-11-14T20:04:17.584Z,8.24
2022-11-14T20:09:38.159Z,8.22
2022-11-14T20:14:58.803Z,8.18
2022-11-14T20:20:19.570Z,8.14
2022-11-14T20:25:40.582Z,8.18
2022-11-14T20:31:02.723Z,8.18
2022-11-14T20:36:26.118Z,8.13
2022-11-14T20:41:46.772Z,8.05
2022-11-14T20:47:10.977Z,7.99
2022-11-14T20:52:31.835Z,7.89
2022-11-14T20:57:52.417Z,7.89
2022-11-14T21:03:12.708Z,7.87
2022-11-14T21:08:34.911Z,7.83
2022-11-14T21:14:01.740Z,7.78
2022-11-14T21:19:22.841Z,7.73
2022-11-14T21:24:43.438Z,7.69
2022-11-14T21:30:04.323Z,7.66
2022-11-14T21:35:24.806Z,7.64
2022-11-14T21:40:54.431Z,7.63
2022-11-14T21:46:18.526Z,7.70
2022-11-14T21:51:39.085Z,7.73
2022-11-14T21:56:59.515Z,7.75
2022-11-14T22:02:38.180Z,7.73
2022-11-14T22:07:58.542Z,7.68
2022-11-14T22:13:19.043Z,7.64
2022-11-14T22:18:38.966Z,7.58
2022-11-14T22:23:59.618Z,7.54
2022-11-14T22:29:20.043Z,7.52
2022-11-14T22:34:40.294Z,7.50
2022-11-14T22:40:00.749Z,7.48
2022-11-14T22:45:21.427Z,7.45
2022-11-14T22:50:41.477Z,7.41
2022-11-14T22:56:02.916Z,7.39
2022-11-14T23:01:31.837Z,7.36
2022-11-14T23:06:52.020Z,7.34
2022-11-14T23:12:12.129Z,7.32
2022-11-14T23:17:32.650Z,7.29
2022-11-14T23:22:53.047Z,7.26
2022-11-14T23:28:13.360Z,7.23
2022-11-14T23:33:33.894Z,7.21
2022-11-14T23:38:55.349Z,7.21
2022-11-14T23:44:15.791Z,7.21
2022-11-14T23:49:35.873Z,7.21
2022-11-14T23:54:56.068Z,7.18
